createdAt,value
2022-11-22T00:00:07.472Z,0
2022-11-22T00:03:07.379Z,0
2022-11-22T00:06:07.347Z,0
2022-11-22T00:09:07.369Z,0
2022-11-22T00:12:07.403Z,0
2022-11-22T00:15:07.366Z,0
2022-11-22T00:18:07.387Z,0
2022-11-22T00:21:07.351Z,0
2022-11-22T00:24:07.425Z,0
2022-11-22T00:27:07.388Z,0
2022-11-22T00:30:07.471Z,0
2022-11-22T00:33:07.434Z,0
2022-11-22T00:36:07.426Z,0
2022-11-22T00:39:07.418Z,0
2022-11-22T00:42:07.453Z,0
2022-11-22T00:45:07.464Z,0
2022-11-22T00:48:07.459Z,0
2022-11-22T00:51:07.384Z,0
2022-11-22T00:54:07.462Z,0
2022-11-22T00:57:07.409Z,0
2022-11-22T01:00:07.359Z,0
2022-11-22T01:03:07.519Z,0
2022-11-22T01:06:07.403Z,0
2022-11-22T01:09:07.429Z,0
2022-11-22T01:12:07.385Z,0
2022-11-22T01:15:07.356Z,0
2022-11-22T01:18:07.330Z,0
2022-11-22T01:21:07.498Z,0
2022-11-22T01:24:07.401Z,0
2022-11-22T01:27:07.411Z,0
2022-11-22T01:30:07.375Z,0
2022-11-22T01:33:07.363Z,0
2022-11-22T01:36:07.429Z,0
2022-11-22T01:39:07.446Z,0
2022-11-22T01:42:07.395Z,0
2022-11-22T01:45:07.364Z,0
2022-11-22T01:48:07.450Z,0
2022-11-22T01:51:07.476Z,0
2022-11-22T01:54:07.445Z,0
2022-11-22T01:57:07.449Z,0
2022-11-22T02:00:07.454Z,0
2022-11-22T02:03:07.387Z,0
2022-11-22T02:06:07.409Z,0
2022-11-22T02:09:07.371Z,0
2022-11-22T02:12:07.427Z,0
2022-11-22T02:15:07.533Z,0
2022-11-22T02:18:07.422Z,0
2022-11-22T02:21:07.458Z,0
2022-11-22T02:24:07.395Z,0
2022-11-22T02:27:07.442Z,0
2022-11-22T02:30:07.419Z,0
2022-11-22T02:33:07.442Z,0
2022-11-22T02:36:07.496Z,0
2022-11-22T02:39:07.468Z,0
2022-11-22T02:42:07.588Z,0
2022-11-22T02:45:07.449Z,0
2022-11-22T02:48:07.445Z,0
2022-11-22T02:51:07.429Z,0
2022-11-22T02:54:07.444Z,0
2022-11-22T02:57:07.367Z,0
2022-11-22T03:00:07.428Z,0
2022-11-22T03:03:07.444Z,0
2022-11-22T03:06:07.556Z,0
2022-11-22T03:09:07.556Z,0
2022-11-22T03:12:07.917Z,0
2022-11-22T03:15:07.848Z,0
2022-11-22T03:18:07.449Z,0
2022-11-22T03:21:07.440Z,0
2022-11-22T03:24:07.446Z,0
2022-11-22T03:27:07.452Z,0
2022-11-22T03:30:07.517Z,0
2022-11-22T03:33:07.381Z,0
2022-11-22T03:36:07.538Z,0
2022-11-22T03:39:07.469Z,0
2022-11-22T03:42:07.472Z,0
2022-11-22T03:45:07.324Z,0
2022-11-22T03:48:07.529Z,0
2022-11-22T03:51:07.376Z,0
2022-11-22T03:54:07.363Z,0
2022-11-22T03:57:07.494Z,0
2022-11-22T04:00:07.462Z,0
2022-11-22T04:03:07.401Z,0
2022-11-22T04:06:07.391Z,0
2022-11-22T04:09:07.938Z,0
2022-11-22T04:12:07.489Z,0
2022-11-22T04:15:07.431Z,0
2022-11-22T04:18:08.143Z,0
2022-11-22T04:21:07.501Z,0
2022-11-22T04:24:07.371Z,0
2022-11-22T04:27:07.390Z,0
2022-11-22T04:30:07.439Z,0
2022-11-22T04:33:07.373Z,0
2022-11-22T04:36:15.204Z,0
2022-11-22T04:39:07.458Z,0
2022-11-22T04:42:07.361Z,0
2022-11-22T04:45:07.347Z,0
2022-11-22T04:48:07.381Z,0
2022-11-22T04:51:07.437Z,0
2022-11-22T04:54:07.420Z,0
2022-11-22T04:57:07.419Z,0
2022-11-22T05:00:07.501Z,0
2022-11-22T05:03:07.421Z,0
2022-11-22T05:06:07.321Z,0
2022-11-22T05:09:07.388Z,0
2022-11-22T05:12:07.389Z,0
2022-11-22T05:15:07.594Z,0
2022-11-22T05:18:07.415Z,0
2022-11-22T05:21:07.508Z,0
2022-11-22T05:24:07.366Z,0
2022-11-22T05:27:07.378Z,0
2022-11-22T05:30:07.416Z,0
2022-11-22T05:33:07.450Z,0
2022-11-22T05:36:07.311Z,0
2022-11-22T05:39:07.329Z,0
2022-11-22T05:42:07.433Z,0
2022-11-22T05:45:07.689Z,0
2022-11-22T05:48:07.447Z,0
2022-11-22T05:51:07.366Z,0
2022-11-22T05:54:07.354Z,0
2022-11-22T05:57:07.332Z,0
2022-11-22T06:00:07.521Z,0
2022-11-22T06:03:07.400Z,0
2022-11-22T06:06:07.456Z,0
2022-11-22T06:09:07.433Z,0
2022-11-22T06:12:07.495Z,0
2022-11-22T06:15:07.388Z,0
2022-11-22T06:18:07.464Z,0
2022-11-22T06:21:07.463Z,3
2022-11-22T06:24:07.427Z,3
2022-11-22T06:27:07.475Z,3
2022-11-22T06:30:07.588Z,7
2022-11-22T06:33:07.500Z,13
2022-11-22T06:36:07.419Z,20
2022-11-22T06:39:08.143Z,30
2022-11-22T06:42:07.440Z,40
2022-11-22T06:45:07.443Z,57
2022-11-22T06:48:07.523Z,77
2022-11-22T06:51:07.645Z,90
2022-11-22T06:54:07.649Z,103
2022-11-22T06:57:07.534Z,107
2022-11-22T07:00:07.833Z,130
2022-11-22T07:03:07.404Z,157
2022-11-22T07:06:07.533Z,207
2022-11-22T07:09:07.434Z,257
2022-11-22T07:12:07.503Z,320
2022-11-22T07:15:07.522Z,423
2022-11-22T07:18:07.492Z,547
2022-11-22T07:21:15.622Z,720
2022-11-22T07:24:07.503Z,773
2022-11-22T07:27:07.496Z,697
2022-11-22T07:30:07.578Z,693
2022-11-22T07:33:07.509Z,663
2022-11-22T07:36:07.503Z,717
2022-11-22T07:39:08.388Z,1053
2022-11-22T07:42:07.573Z,1270
2022-11-22T07:45:07.575Z,1510
2022-11-22T07:48:07.559Z,1813
2022-11-22T07:51:07.502Z,1757
2022-11-22T07:54:07.481Z,1880
2022-11-22T07:57:07.474Z,2140
2022-11-22T08:00:07.877Z,2630
2022-11-22T08:03:07.404Z,2927
2022-11-22T08:06:07.574Z,3093
2022-11-22T08:09:09.237Z,2733
2022-11-22T08:12:07.514Z,2937
2022-11-22T08:15:07.442Z,3527
2022-11-22T08:18:07.537Z,4113
2022-11-22T08:21:07.426Z,4507
2022-11-22T08:24:07.614Z,3773
2022-11-22T08:27:07.512Z,3110
2022-11-22T08:30:07.696Z,2920
2022-11-22T08:33:07.443Z,2667
2022-11-22T08:36:07.487Z,2563
2022-11-22T08:39:07.487Z,2790
2022-11-22T08:42:07.420Z,3317
2022-11-22T08:45:07.506Z,3387
2022-11-22T08:48:07.543Z,3297
2022-11-22T08:51:07.444Z,4483
2022-11-22T08:54:07.523Z,3943
2022-11-22T08:57:07.467Z,3490
2022-11-22T09:00:07.541Z,3387
2022-11-22T09:03:07.449Z,3713
2022-11-22T09:09:44.881Z,4927
2022-11-22T09:12:07.565Z,6190
2022-11-22T09:15:07.480Z,6540
2022-11-22T09:18:07.493Z,7147
2022-11-22T09:21:07.362Z,7573
2022-11-22T09:24:07.598Z,6427
2022-11-22T09:27:07.407Z,6167
2022-11-22T09:30:07.536Z,7547
2022-11-22T09:33:07.456Z,8870
2022-11-22T09:36:07.457Z,8470
2022-11-22T09:39:07.437Z,9257
2022-11-22T09:42:07.516Z,9820
2022-11-22T09:45:07.525Z,9597
2022-11-22T09:48:15.991Z,9397
2022-11-22T09:51:07.679Z,9387
2022-11-22T09:54:07.585Z,9890
2022-11-22T09:57:07.419Z,10127
2022-11-22T10:00:08.146Z,9010
2022-11-22T10:03:07.948Z,9977
2022-11-22T10:06:07.556Z,7953
2022-11-22T10:09:07.454Z,6633
2022-11-22T10:12:07.441Z,7493
2022-11-22T10:15:07.527Z,8063
2022-11-22T10:18:07.476Z,7917
2022-11-22T10:21:07.419Z,10013
2022-11-22T10:24:07.481Z,10337
2022-11-22T10:27:07.425Z,9223
2022-11-22T10:30:07.437Z,8730
2022-11-22T10:33:07.440Z,8530
2022-11-22T10:36:07.551Z,8103
2022-11-22T10:39:07.404Z,8433
2022-11-22T10:42:07.475Z,9173
2022-11-22T10:45:07.588Z,10027
2022-11-22T10:48:07.501Z,10693
2022-11-22T10:51:07.421Z,11017
2022-11-22T10:54:10.788Z,11340
2022-11-22T10:57:07.676Z,10803
2022-11-22T11:00:07.639Z,10650
2022-11-22T11:03:07.669Z,10677
2022-11-22T11:12:07.461Z,11160
2022-11-22T11:15:07.462Z,11517
2022-11-22T11:18:07.566Z,11737
2022-11-22T11:21:07.484Z,12320
2022-11-22T11:24:07.499Z,12500
2022-11-22T11:27:07.421Z,12200
2022-11-22T11:30:07.766Z,11687
2022-11-22T11:33:07.499Z,11690
2022-11-22T11:36:07.464Z,11683
2022-11-22T11:39:07.452Z,11577
2022-11-22T11:42:07.462Z,11733
2022-11-22T11:45:07.544Z,12063
2022-11-22T11:48:07.444Z,12007
2022-11-22T11:51:07.572Z,11280
2022-11-22T11:54:07.428Z,10757
2022-11-22T11:57:07.593Z,10667
2022-11-22T12:00:07.512Z,10697
2022-11-22T12:03:07.533Z,11150
2022-11-22T12:06:07.479Z,11500
2022-11-22T12:09:07.389Z,10397
2022-11-22T12:12:07.469Z,9263
2022-11-22T12:15:20.412Z,9003
2022-11-22T12:18:07.590Z,9560
2022-11-22T12:21:07.496Z,10420
2022-11-22T12:27:07.667Z,10400
2022-11-22T12:30:07.496Z,9987
2022-11-22T12:33:07.459Z,10000
2022-11-22T12:36:07.544Z,10550
2022-11-22T12:39:07.511Z,10523
2022-11-22T12:42:07.621Z,10370
2022-11-22T12:45:07.580Z,9663
2022-11-22T12:48:07.590Z,9790
2022-11-22T12:51:07.442Z,9647
2022-11-22T12:54:07.536Z,9507
2022-11-22T12:57:07.592Z,10083
2022-11-22T13:00:07.581Z,9377
2022-11-22T13:03:07.510Z,9337
2022-11-22T13:06:07.507Z,8880
2022-11-22T13:09:11.225Z,8527
2022-11-22T13:12:07.486Z,8460
2022-11-22T13:15:07.492Z,8790
2022-11-22T13:18:07.503Z,8810
2022-11-22T13:21:07.562Z,8320
2022-11-22T13:24:07.469Z,8293
2022-11-22T13:27:07.487Z,9900
2022-11-22T13:30:07.563Z,8660
2022-11-22T13:33:07.539Z,10673
2022-11-22T13:36:07.510Z,9837
2022-11-22T13:39:07.484Z,6510
2022-11-22T13:42:07.561Z,6330
2022-11-22T13:45:07.407Z,5797
2022-11-22T13:48:07.461Z,6180
2022-11-22T13:51:07.433Z,6387
2022-11-22T13:54:07.726Z,6000
2022-11-22T13:57:07.521Z,5077
2022-11-22T14:00:07.639Z,5033
2022-11-22T14:03:07.445Z,4957
2022-11-22T14:06:07.425Z,4970
2022-11-22T14:09:07.531Z,4793
2022-11-22T14:12:07.421Z,4383
2022-11-22T14:15:07.650Z,4037
2022-11-22T14:18:07.619Z,3660
2022-11-22T14:21:07.547Z,3610
2022-11-22T14:24:07.428Z,3493
2022-11-22T14:27:07.735Z,3333
2022-11-22T14:30:08.719Z,3060
2022-11-22T14:33:07.617Z,2837
2022-11-22T14:36:07.491Z,2617
2022-11-22T14:39:07.507Z,2440
2022-11-22T14:42:07.443Z,2173
2022-11-22T14:45:07.444Z,1937
2022-11-22T14:48:08.240Z,1870
2022-11-22T14:51:07.426Z,1597
2022-11-22T14:54:07.537Z,1497
2022-11-22T14:57:11.525Z,1277
2022-11-22T15:00:07.779Z,1150
2022-11-22T15:03:07.522Z,993
2022-11-22T15:09:55.430Z,693
2022-11-22T15:12:07.412Z,567
2022-11-22T16:00:07.540Z,0
2022-11-22T16:03:07.345Z,0
2022-11-22T16:06:18.922Z,0
2022-11-22T16:09:07.434Z,0
2022-11-22T16:12:07.349Z,0
2022-11-22T16:15:07.460Z,0
2022-11-22T16:18:07.841Z,0
2022-11-22T16:21:07.318Z,0
2022-11-22T16:24:07.408Z,0
2022-11-22T16:27:07.330Z,0
2022-11-22T16:30:07.518Z,0
2022-11-22T16:33:07.658Z,0
2022-11-22T16:36:07.412Z,0
2022-11-22T16:39:07.426Z,0
2022-11-22T16:42:07.386Z,0
2022-11-22T16:45:11.367Z,0
2022-11-22T16:48:38.587Z,0
2022-11-22T16:51:07.341Z,0
2022-11-22T16:54:07.437Z,0
2022-11-22T16:57:07.479Z,0
2022-11-22T17:00:07.369Z,0
2022-11-22T17:03:07.359Z,0
2022-11-22T17:06:07.389Z,0
2022-11-22T17:09:07.436Z,0
2022-11-22T17:12:07.376Z,0
2022-11-22T17:15:07.365Z,0
2022-11-22T17:18:07.363Z,0
2022-11-22T17:21:07.360Z,0
2022-11-22T17:24:07.362Z,0
2022-11-22T17:27:07.419Z,0
2022-11-22T17:30:07.390Z,0
2022-11-22T17:33:07.416Z,0
2022-11-22T17:36:07.388Z,0
2022-11-22T17:39:07.551Z,0
2022-11-22T17:42:07.425Z,0
2022-11-22T17:45:07.437Z,0
2022-11-22T17:48:07.339Z,0
2022-11-22T17:51:07.336Z,0
2022-11-22T17:54:07.405Z,0
2022-11-22T17:57:07.429Z,0
2022-11-22T18:00:07.488Z,0
2022-11-22T18:03:15.016Z,0
2022-11-22T18:06:07.411Z,0
2022-11-22T18:09:07.479Z,0
2022-11-22T18:12:07.438Z,0
2022-11-22T18:15:07.414Z,0
2022-11-22T18:18:07.418Z,0
2022-11-22T18:21:09.409Z,0
2022-11-22T18:24:07.466Z,0
2022-11-22T18:27:07.376Z,0
2022-11-22T18:30:07.555Z,0
2022-11-22T18:33:07.396Z,0
2022-11-22T18:36:36.942Z,0
2022-11-22T18:39:07.337Z,0
2022-11-22T18:42:07.428Z,0
2022-11-22T18:45:07.407Z,0
2022-11-22T18:48:07.446Z,0
2022-11-22T18:51:07.479Z,0
2022-11-22T18:54:07.432Z,0
2022-11-22T18:57:07.366Z,0
2022-11-22T19:00:07.422Z,0
2022-11-22T19:03:07.337Z,0
2022-11-22T19:06:07.392Z,0
2022-11-22T19:09:07.364Z,0
2022-11-22T19:12:07.371Z,0
2022-11-22T19:15:07.320Z,0
2022-11-22T19:18:07.433Z,0
2022-11-22T19:21:07.447Z,0
2022-11-22T19:24:07.430Z,0
2022-11-22T19:27:07.351Z,0
2022-11-22T19:30:08.016Z,0
2022-11-22T19:33:07.416Z,0
2022-11-22T19:36:07.371Z,0
2022-11-22T19:39:07.437Z,0
2022-11-22T19:42:07.384Z,0
2022-11-22T19:45:07.438Z,0
2022-11-22T19:48:07.304Z,0
2022-11-22T19:51:07.436Z,0
2022-11-22T19:54:07.447Z,0
2022-11-22T19:57:07.407Z,0
2022-11-22T20:00:07.421Z,0
2022-11-22T20:03:07.432Z,0
2022-11-22T20:06:07.402Z,0
2022-11-22T20:09:07.371Z,0
2022-11-22T20:12:07.436Z,0
2022-11-22T20:15:07.344Z,0
2022-11-22T20:18:07.328Z,0
2022-11-22T20:21:07.292Z,0
2022-11-22T20:24:07.372Z,0
2022-11-22T20:27:07.415Z,0
2022-11-22T20:30:07.463Z,0
2022-11-22T20:33:07.323Z,0
2022-11-22T20:36:07.349Z,0
2022-11-22T20:39:16.619Z,0
2022-11-22T20:42:41.183Z,0
2022-11-22T20:45:07.334Z,0
2022-11-22T20:48:07.358Z,0
2022-11-22T20:51:07.357Z,0
2022-11-22T20:54:07.395Z,0
2022-11-22T20:57:07.396Z,0
2022-11-22T21:00:07.516Z,0
2022-11-22T21:03:07.381Z,0
2022-11-22T21:06:07.357Z,0
2022-11-22T21:09:07.395Z,0
2022-11-22T21:12:07.331Z,0
2022-11-22T21:15:07.417Z,0
2022-11-22T21:18:32.547Z,0
2022-11-22T21:21:07.332Z,0
2022-11-22T21:24:07.355Z,0
2022-11-22T21:27:07.825Z,0
2022-11-22T21:30:07.399Z,0
2022-11-22T21:33:07.418Z,0
2022-11-22T21:36:07.359Z,0
2022-11-22T21:39:07.355Z,0
2022-11-22T21:42:07.437Z,0
2022-11-22T21:45:07.661Z,0
2022-11-22T21:48:07.334Z,0
2022-11-22T21:51:07.356Z,0
2022-11-22T21:54:07.380Z,0
2022-11-22T21:57:09.801Z,0
2022-11-22T22:00:07.428Z,0
2022-11-22T22:03:07.450Z,0
2022-11-22T22:06:07.438Z,0
2022-11-22T22:09:07.407Z,0
2022-11-22T22:12:07.325Z,0
2022-11-22T22:15:07.366Z,0
2022-11-22T22:18:07.358Z,0
2022-11-22T22:21:07.383Z,0
2022-11-22T22:24:07.401Z,0
2022-11-22T22:27:07.369Z,0
2022-11-22T22:30:07.358Z,0
2022-11-22T22:33:07.357Z,0
2022-11-22T22:39:07.473Z,0
2022-11-22T22:42:07.373Z,0
2022-11-22T22:45:07.371Z,0
2022-11-22T22:48:07.375Z,0
2022-11-22T22:51:07.354Z,0
2022-11-22T22:54:07.643Z,0
2022-11-22T22:57:07.392Z,0
2022-11-22T23:00:07.897Z,0
2022-11-22T23:03:07.808Z,0
2022-11-22T23:06:07.372Z,0
2022-11-22T23:09:07.348Z,0
2022-11-22T23:12:07.445Z,0
2022-11-22T23:15:07.429Z,0
2022-11-22T23:18:07.378Z,0
2022-11-22T23:21:07.521Z,0
2022-11-22T23:24:07.428Z,0
2022-11-22T23:27:07.399Z,0
2022-11-22T23:30:07.571Z,0
2022-11-22T23:33:07.453Z,0
2022-11-22T23:36:07.480Z,0
2022-11-22T23:39:07.366Z,0
2022-11-22T23:42:07.361Z,0
2022-11-22T23:45:07.411Z,0
2022-11-22T23:48:07.522Z,0
2022-11-22T23:51:07.513Z,0
2022-11-22T23:54:07.480Z,0
2022-11-22T23:57:07.360Z,0
